Time;durP1;ratioP1;P1;durP2;ratioP2;P2;SDS_P1;SDS_P2;PMS_P1;PMS_P2;Temp;Humidity;BMP_temperature;BMP_pressure;BME280_temperature;BME280_humidity;BME280_pressure;Samples;Min_cycle;Max_cycle;Signal;HPM_P1;HPM_P2
2021/12/30 00:01:56;;;;;;;34.28;20.10;;;8.00;99.90;;;;;;5035369;28;20115;-78
2021/12/30 00:04:22;;;;;;;35.05;21.42;;;8.00;99.90;;;;;;5053290;28;20036;-77
2021/12/30 00:06:48;;;;;;;30.88;20.63;;;8.00;99.90;;;;;;5053149;28;20021;-78
2021/12/30 00:09:19;;;;;;;35.03;20.63;;;8.00;99.90;;;;;;5053126;28;20070;-79
2021/12/30 00:11:45;;;;;;;34.35;21.27;;;8.00;99.90;;;;;;5035565;28;20029;-77
2021/12/30 00:14:11;;;;;;;34.20;21.15;;;8.00;99.90;;;;;;5053402;28;20019;-76
2021/12/30 00:16:37;;;;;;;35.85;21.00;;;;;;;;;;5053202;28;20028;-77
2021/12/30 00:19:03;;;;;;;36.05;22.02;;;8.00;99.90;;;;;;5053042;28;20383;-75
2021/12/30 00:21:29;;;;;;;36.22;23.42;;;8.10;99.90;;;;;;5053326;28;20056;-77
2021/12/30 00:23:55;;;;;;;33.03;22.15;;;;;;;;;;5053674;28;20025;-77
2021/12/30 00:26:21;;;;;;;37.08;22.65;;;;;;;;;;5053049;28;20097;-76
2021/12/30 00:28:47;;;;;;;38.60;23.52;;;;;;;;;;5052994;28;20473;-76
2021/12/30 00:31:14;;;;;;;40.22;24.58;;;;;;;;;;5053605;28;20021;-78
2021/12/30 00:33:40;;;;;;;44.40;26.33;;;;;;;;;;5053525;28;20021;-75
2021/12/30 00:36:07;;;;;;;43.45;26.50;;;;;;;;;;5035028;28;20013;-77
2021/12/30 00:38:34;;;;;;;47.88;27.08;;;;;;;;;;5035113;28;20120;-75
2021/12/30 00:41:00;;;;;;;45.58;27.02;;;;;;;;;;5056474;23;20366;-76
2021/12/30 00:43:26;;;;;;;47.70;27.67;;;;;;;;;;5039249;28;20094;-77
2021/12/30 00:45:52;;;;;;;52.50;29.48;;;;;;;;;;5055402;28;20025;-75
2021/12/30 00:48:18;;;;;;;49.00;29.52;;;;;;;;;;5053773;28;20037;-76
2021/12/30 00:50:45;;;;;;;56.83;31.10;;;;;;;;;;5043218;28;20075;-77
2021/12/30 00:53:11;;;;;;;59.83;33.00;;;;;;;;;;5038150;28;20025;-77
2021/12/30 00:55:38;;;;;;;59.47;32.95;;;;;;;;;;5035674;28;20029;-76
2021/12/30 00:58:04;;;;;;;61.55;32.63;;;;;;;;;;5037192;28;20032;-76
2021/12/30 01:00:30;;;;;;;68.78;33.17;;;8.10;99.90;;;;;;5035429;28;20030;-77
2021/12/30 01:02:56;;;;;;;56.80;32.78;;;8.40;99.90;;;;;;5036718;28;20022;-77
2021/12/30 01:05:22;;;;;;;61.28;32.80;;;8.40;99.90;;;;;;5036168;28;20036;-77
2021/12/30 01:07:48;;;;;;;72.88;35.75;;;8.40;99.90;;;;;;5037396;28;20101;-76
2021/12/30 01:10:17;;;;;;;75.35;36.20;;;8.40;99.90;;;;;;5037237;28;20113;-77
2021/12/30 01:12:44;;;;;;;72.88;35.75;;;8.50;99.90;;;;;;5037558;28;20386;-77
2021/12/30 01:15:12;;;;;;;68.13;35.13;;;8.50;99.90;;;;;;5037590;28;20048;-76
2021/12/30 01:20:06;;;;;;;84.05;37.60;;;8.50;99.90;;;;;;5036751;28;20030;-77
2021/12/30 01:22:33;;;;;;;77.95;37.60;;;8.60;99.90;;;;;;5035968;28;20033;-77
2021/12/30 01:24:59;;;;;;;75.20;36.80;;;8.60;99.90;;;;;;5036001;28;20421;-77
2021/12/30 01:27:25;;;;;;;84.38;38.33;;;8.60;99.90;;;;;;5035520;28;20501;-77
2021/12/30 01:29:51;;;;;;;77.82;39.53;;;8.60;99.90;;;;;;5017893;28;20036;-77
2021/12/30 01:32:17;;;;;;;76.72;38.50;;;8.70;99.90;;;;;;5036470;28;20025;-77
2021/12/30 01:34:43;;;;;;;82.78;38.55;;;8.70;99.90;;;;;;5036608;28;20386;-77
2021/12/30 01:37:09;;;;;;;93.97;39.60;;;8.70;99.90;;;;;;5036097;28;20021;-75
2021/12/30 01:39:38;;;;;;;78.10;37.78;;;8.70;99.90;;;;;;5018081;28;20033;-75
2021/12/30 01:42:06;;;;;;;89.10;38.03;;;8.70;99.90;;;;;;5017956;28;20025;-76
2021/12/30 01:44:33;;;;;;;78.38;38.25;;;8.80;99.90;;;;;;5035369;28;20025;-76
2021/12/30 01:47:00;;;;;;;84.63;38.40;;;8.80;99.90;;;;;;5035281;28;20482;-77
2021/12/30 01:49:26;;;;;;;86.85;36.58;;;8.80;99.90;;;;;;5017820;28;20060;-75
2021/12/30 01:51:55;;;;;;;89.65;37.85;;;8.90;99.90;;;;;;5035747;28;20022;-76
2021/12/30 01:54:22;;;;;;;76.68;38.42;;;8.90;99.90;;;;;;5035775;28;20033;-76
2021/12/30 01:56:50;;;;;;;66.82;35.88;;;8.90;99.90;;;;;;5018194;28;20085;-76
2021/12/30 01:59:17;;;;;;;81.55;35.42;;;8.90;99.90;;;;;;5036465;28;20400;-77
2021/12/30 02:01:42;;;;;;;80.03;34.15;;;8.90;99.90;;;;;;5034951;28;20068;-77
2021/12/30 02:04:08;;;;;;;82.05;34.97;;;8.90;99.90;;;;;;5036545;28;20053;-76
2021/12/30 02:06:33;;;;;;;81.40;34.17;;;8.90;99.90;;;;;;5017817;28;20029;-77
2021/12/30 02:09:00;;;;;;;78.38;34.28;;;8.90;99.90;;;;;;5017759;28;20033;-78
2021/12/30 02:11:27;;;;;;;83.13;33.53;;;8.90;99.90;;;;;;5035384;28;20018;-76
2021/12/30 02:13:53;;;;;;;80.22;33.22;;;8.90;99.90;;;;;;5035641;28;20047;-76
2021/12/30 02:16:21;;;;;;;76.97;31.33;;;9.00;99.90;;;;;;5035393;28;20499;-76
2021/12/30 02:18:47;;;;;;;83.72;31.17;;;9.00;99.90;;;;;;5036180;28;20060;-77
2021/12/30 02:21:13;;;;;;;75.97;30.80;;;9.00;99.90;;;;;;5023305;28;20081;-77
2021/12/30 02:23:39;;;;;;;83.13;28.50;;;9.00;99.90;;;;;;5057157;28;20383;-77
2021/12/30 02:26:08;;;;;;;73.60;26.95;;;9.00;99.90;;;;;;5040580;28;20017;-75
2021/12/30 02:28:36;;;;;;;73.57;26.45;;;9.00;99.90;;;;;;5057551;28;20101;-77
2021/12/30 02:31:05;;;;;;;74.35;26.88;;;9.10;99.90;;;;;;5058675;28;20041;-76
2021/12/30 02:33:31;;;;;;;69.40;23.38;;;9.00;99.90;;;;;;5058981;28;20010;-77
2021/12/30 02:35:57;;;;;;;72.57;25.27;;;9.00;99.90;;;;;;5058745;28;20022;-76
2021/12/30 02:38:24;;;;;;;73.28;25.25;;;9.00;99.90;;;;;;5058220;28;20025;-77
2021/12/30 02:40:53;;;;;;;64.15;23.63;;;9.00;99.90;;;;;;5049871;28;20113;-76
2021/12/30 02:43:21;;;;;;;83.80;24.17;;;9.00;99.90;;;;;;5039745;28;20013;-77
2021/12/30 02:45:47;;;;;;;65.80;21.83;;;9.10;99.90;;;;;;5055154;28;20060;-78
2021/12/30 02:48:19;;;;;;;65.43;22.02;;;9.10;99.90;;;;;;5034939;28;20029;-77
2021/12/30 02:50:46;;;;;;;65.35;20.55;;;9.10;99.90;;;;;;5035096;28;20080;-78
2021/12/30 02:53:13;;;;;;;62.58;19.95;;;9.10;99.90;;;;;;5038267;28;20029;-78
2021/12/30 02:55:40;;;;;;;67.25;19.30;;;9.10;99.90;;;;;;5040327;28;20018;-77
2021/12/30 02:58:05;;;;;;;64.97;19.35;;;9.00;99.90;;;;;;5041972;28;20029;-76
2021/12/30 03:00:31;;;;;;;65.82;18.15;;;9.00;99.90;;;;;;5037155;28;20026;-76
2021/12/30 03:02:57;;;;;;;60.22;17.25;;;9.10;99.90;;;;;;5016958;28;20029;-78
2021/12/30 03:05:24;;;;;;;66.43;17.48;;;9.00;99.90;;;;;;5034103;28;20474;-77
2021/12/30 03:07:50;;;;;;;63.08;16.90;;;9.00;99.90;;;;;;5035533;28;20469;-77
2021/12/30 03:10:23;;;;;;;67.22;18.27;;;9.00;99.90;;;;;;5035094;28;20429;-77
2021/12/30 03:12:56;;;;;;;73.70;17.08;;;9.00;99.90;;;;;;5035385;28;20421;-77
2021/12/30 03:15:23;;;;;;;72.30;16.60;;;9.00;99.90;;;;;;5042861;28;20025;-79
2021/12/30 03:17:49;;;;;;;67.68;16.88;;;8.90;99.90;;;;;;5041090;28;20051;-79
2021/12/30 03:20:15;;;;;;;81.47;17.08;;;8.90;99.90;;;;;;5028625;28;20049;-79
2021/12/30 03:22:43;;;;;;;63.47;14.70;;;8.90;99.90;;;;;;5049239;28;20030;-78
2021/12/30 03:25:12;;;;;;;62.42;16.38;;;9.00;99.90;;;;;;5044979;28;20482;-78
2021/12/30 03:27:38;;;;;;;70.93;14.10;;;9.00;99.90;;;;;;5039393;28;20105;-80
2021/12/30 03:30:06;;;;;;;56.70;13.88;;;9.00;99.90;;;;;;5039140;28;20029;-79
2021/12/30 03:32:32;;;;;;;64.47;13.00;;;9.10;99.90;;;;;;5040779;28;20033;-79
2021/12/30 03:34:58;;;;;;;51.63;12.77;;;9.00;99.90;;;;;;5022371;28;20120;-80
2021/12/30 03:37:23;;;;;;;57.65;14.00;;;9.00;99.90;;;;;;5024026;28;20029;-79
2021/12/30 03:39:50;;;;;;;74.47;13.73;;;9.10;99.90;;;;;;5040907;28;20037;-79
2021/12/30 03:42:16;;;;;;;71.97;12.38;;;9.00;99.90;;;;;;5040242;28;20049;-79
2021/12/30 03:44:43;;;;;;;55.65;11.63;;;9.00;99.90;;;;;;5024635;28;20033;-79
2021/12/30 03:47:13;;;;;;;77.88;11.85;;;9.00;99.90;;;;;;5047251;28;20026;-80
2021/12/30 03:49:43;;;;;;;77.00;12.82;;;9.00;99.90;;;;;;5027072;28;20383;-81
2021/12/30 03:52:09;;;;;;;51.28;10.70;;;9.00;99.90;;;;;;5025843;28;20022;-78
2021/12/30 03:54:35;;;;;;;42.97;10.20;;;9.00;99.90;;;;;;5022924;28;20057;-79
2021/12/30 03:57:01;;;;;;;53.13;11.10;;;8.90;99.90;;;;;;5041368;28;20025;-79
2021/12/30 03:59:26;;;;;;;59.85;11.00;;;8.90;99.90;;;;;;5038593;28;20036;-78
2021/12/30 04:01:52;;;;;;;72.32;12.13;;;8.90;99.90;;;;;;5043787;28;20127;-79
2021/12/30 04:04:17;;;;;;;60.78;10.43;;;8.90;99.90;;;;;;5026136;28;20096;-75
2021/12/30 04:06:43;;;;;;;62.15;10.65;;;8.90;99.90;;;;;;5038154;28;20064;-78
2021/12/30 04:09:08;;;;;;;69.82;10.35;;;8.80;99.90;;;;;;5035792;28;20044;-77
2021/12/30 04:11:36;;;;;;;54.30;9.93;;;8.80;99.90;;;;;;5036664;28;20059;-77
2021/12/30 04:14:04;;;;;;;61.83;10.50;;;8.70;99.90;;;;;;5036627;28;20022;-77
2021/12/30 04:16:30;;;;;;;55.10;9.07;;;8.70;99.90;;;;;;5040265;28;20044;-76
2021/12/30 04:18:55;;;;;;;52.53;9.50;;;8.70;99.90;;;;;;5022855;28;20025;-77
2021/12/30 04:21:23;;;;;;;64.72;10.05;;;8.70;99.90;;;;;;5033855;28;20030;-76
2021/12/30 04:23:48;;;;;;;51.10;9.02;;;8.70;99.90;;;;;;5035007;28;20029;-77
2021/12/30 04:26:14;;;;;;;59.50;9.70;;;8.60;99.90;;;;;;5035609;28;20063;-77
2021/12/30 04:28:40;;;;;;;48.10;9.20;;;8.70;99.90;;;;;;5022852;28;20089;-76
2021/12/30 04:31:06;;;;;;;53.17;9.15;;;8.70;99.90;;;;;;5042532;28;20022;-76
2021/12/30 04:33:32;;;;;;;73.95;9.32;;;8.60;99.90;;;;;;5025779;28;20136;-78
2021/12/30 04:35:57;;;;;;;50.90;9.23;;;8.70;99.90;;;;;;5038528;28;20044;-77
2021/12/30 04:38:25;;;;;;;65.10;9.52;;;8.60;99.90;;;;;;5038379;28;20028;-76
2021/12/30 04:40:51;;;;;;;64.97;10.07;;;8.60;99.90;;;;;;5036907;28;20061;-77
2021/12/30 04:43:17;;;;;;;60.28;9.73;;;8.60;99.90;;;;;;5036844;28;20040;-78
2021/12/30 04:45:43;;;;;;;67.57;9.95;;;8.60;99.90;;;;;;5034241;28;20021;-76
2021/12/30 04:48:09;;;;;;;65.25;11.77;;;8.50;99.90;;;;;;5014672;28;20061;-76
2021/12/30 04:50:35;;;;;;;72.25;10.13;;;8.50;99.90;;;;;;5032778;28;20065;-77
2021/12/30 04:53:01;;;;;;;67.93;10.90;;;8.50;99.90;;;;;;5037289;28;20026;-77
2021/12/30 04:55:27;;;;;;;59.53;10.13;;;8.50;99.90;;;;;;5034895;28;20014;-77
2021/12/30 04:57:52;;;;;;;63.28;10.52;;;8.40;99.90;;;;;;5020957;28;20044;-76
2021/12/30 05:00:18;;;;;;;48.33;9.68;;;8.40;99.90;;;;;;5037367;28;20033;-76
2021/12/30 05:05:27;;;;;;;58.17;10.95;;;8.30;99.90;;;;;;5032602;28;20026;-76
2021/12/30 05:07:53;;;;;;;71.38;11.15;;;8.30;99.90;;;;;;5032094;28;20147;-77
2021/12/30 05:10:19;;;;;;;67.82;10.95;;;8.30;99.90;;;;;;5031878;28;20100;-76
2021/12/30 05:12:45;;;;;;;61.42;10.60;;;8.30;99.90;;;;;;5032357;28;20485;-76
2021/12/30 05:15:11;;;;;;;73.68;11.27;;;8.20;99.90;;;;;;5032824;28;20028;-76
2021/12/30 05:17:39;;;;;;;48.22;9.88;;;8.20;99.90;;;;;;5034650;28;20021;-77
2021/12/30 05:20:05;;;;;;;59.67;10.45;;;8.30;99.90;;;;;;5033276;28;20025;-76
2021/12/30 05:22:31;;;;;;;75.93;11.82;;;8.20;99.90;;;;;;5039217;28;20025;-76
2021/12/30 05:24:56;;;;;;;57.92;12.60;;;8.30;99.90;;;;;;5032348;28;20308;-77
2021/12/30 05:27:22;;;;;;;68.28;12.98;;;8.30;99.90;;;;;;5033722;28;20025;-77
2021/12/30 05:29:47;;;;;;;71.07;11.85;;;8.30;99.90;;;;;;5040638;28;20478;-77
2021/12/30 05:32:13;;;;;;;80.55;13.10;;;8.30;99.90;;;;;;5035713;28;20136;-77
2021/12/30 05:34:39;;;;;;;63.20;13.43;;;8.20;99.90;;;;;;5035113;28;20024;-77
2021/12/30 05:37:04;;;;;;;73.82;14.00;;;8.30;99.90;;;;;;5040639;28;20033;-77
2021/12/30 05:39:30;;;;;;;80.20;15.38;;;8.30;99.90;;;;;;5037392;28;20032;-77
2021/12/30 05:41:57;;;;;;;80.68;17.17;;;8.30;99.90;;;;;;5037556;28;20048;-77
2021/12/30 05:44:22;;;;;;;79.50;16.73;;;8.30;99.90;;;;;;5038788;28;20041;-76
2021/12/30 05:46:48;;;;;;;76.63;17.00;;;8.40;99.90;;;;;;5023467;28;20044;-75
2021/12/30 05:49:13;;;;;;;100.53;18.00;;;8.40;99.90;;;;;;5040360;28;20049;-76
2021/12/30 05:51:41;;;;;;;76.03;17.08;;;8.40;99.90;;;;;;5019015;28;20030;-76
2021/12/30 05:54:07;;;;;;;108.10;18.67;;;8.50;99.90;;;;;;5036813;28;20434;-77
2021/12/30 05:56:33;;;;;;;82.20;18.48;;;8.50;99.90;;;;;;5035431;28;20017;-76
2021/12/30 05:58:58;;;;;;;84.93;18.75;;;8.50;99.90;;;;;;5035427;28;20033;-76
2021/12/30 06:01:24;;;;;;;92.90;18.98;;;8.50;99.90;;;;;;5035450;28;20030;-76
2021/12/30 06:03:49;;;;;;;92.65;20.42;;;8.50;99.90;;;;;;5035943;28;20394;-77
2021/12/30 06:06:15;;;;;;;78.88;19.33;;;8.50;99.90;;;;;;5035151;28;20037;-76
2021/12/30 06:08:41;;;;;;;111.15;18.88;;;8.50;99.90;;;;;;5036017;28;20108;-77
2021/12/30 06:11:06;;;;;;;86.75;18.13;;;8.50;99.90;;;;;;5034903;28;20115;-76
2021/12/30 06:13:32;;;;;;;101.07;18.90;;;8.60;99.90;;;;;;5016933;28;20117;-77
2021/12/30 06:15:57;;;;;;;72.07;16.20;;;8.60;99.90;;;;;;5035316;28;20080;-77
2021/12/30 06:18:23;;;;;;;82.50;16.90;;;8.70;99.90;;;;;;5035616;28;20477;-75
2021/12/30 06:20:49;;;;;;;103.03;18.60;;;8.70;99.90;;;;;;5041549;28;20025;-77
2021/12/30 06:23:14;;;;;;;86.90;17.10;;;8.70;99.90;;;;;;5041998;28;20022;-75
2021/12/30 06:25:40;;;;;;;84.50;17.73;;;8.70;99.90;;;;;;5023373;28;20075;-76
2021/12/30 06:28:05;;;;;;;76.50;16.95;;;8.70;99.90;;;;;;5041158;28;20032;-78
2021/12/30 06:30:31;;;;;;;92.75;17.90;;;8.70;99.90;;;;;;5025795;28;20104;-78
2021/12/30 06:32:57;;;;;;;101.20;18.83;;;8.70;99.90;;;;;;5051608;28;20009;-78
2021/12/30 06:35:22;;;;;;;107.57;18.27;;;8.70;99.90;;;;;;5050562;28;20014;-79
2021/12/30 06:37:48;;;;;;;104.00;17.02;;;8.80;99.90;;;;;;5023043;28;20018;-79
2021/12/30 06:40:15;;;;;;;98.80;17.73;;;8.80;99.90;;;;;;5070024;22;20045;-77
2021/12/30 06:42:42;;;;;;;93.03;15.43;;;8.80;99.90;;;;;;5064449;28;20020;-77
2021/12/30 06:45:09;;;;;;;92.50;16.67;;;8.80;99.90;;;;;;5065793;28;20115;-77
2021/12/30 06:47:35;;;;;;;85.85;15.82;;;8.80;99.90;;;;;;5081120;28;20031;-77
2021/12/30 06:50:02;;;;;;;89.20;16.67;;;8.80;99.90;;;;;;5059139;28;20037;-76
2021/12/30 06:52:29;;;;;;;96.57;17.08;;;8.90;99.90;;;;;;5056893;28;20041;-77
2021/12/30 06:54:55;;;;;;;99.35;16.80;;;8.90;99.90;;;;;;5056476;28;20082;-76
2021/12/30 06:57:21;;;;;;;106.47;17.33;;;8.90;99.90;;;;;;5055248;28;20386;-76
2021/12/30 06:59:47;;;;;;;100.95;16.60;;;8.90;99.90;;;;;;5037013;28;20032;-75
2021/12/30 07:02:14;;;;;;;105.50;17.55;;;8.90;99.90;;;;;;5054517;28;20020;-75
2021/12/30 07:04:39;;;;;;;107.22;18.13;;;9.00;99.90;;;;;;5054351;28;20081;-76
2021/12/30 07:07:05;;;;;;;84.80;16.40;;;9.00;99.90;;;;;;5054589;28;20103;-77
2021/12/30 07:09:31;;;;;;;89.88;17.35;;;9.00;99.90;;;;;;5055929;28;20021;-76
2021/12/30 07:11:57;;;;;;;100.20;17.05;;;9.00;99.90;;;;;;5057632;28;20028;-76
2021/12/30 07:14:23;;;;;;;106.35;16.98;;;9.00;99.90;;;;;;5077155;28;20093;-76
2021/12/30 07:16:49;;;;;;;86.43;16.38;;;9.00;99.90;;;;;;5071547;28;20078;-74
2021/12/30 07:19:15;;;;;;;88.75;17.08;;;9.10;99.90;;;;;;5055497;28;20035;-75
2021/12/30 07:21:42;;;;;;;97.40;17.50;;;9.10;99.90;;;;;;5053987;28;20029;-75
2021/12/30 07:24:08;;;;;;;116.50;20.00;;;9.10;99.90;;;;;;5035926;28;20025;-75
2021/12/30 07:26:34;;;;;;;107.32;19.73;;;9.10;99.90;;;;;;5053580;28;20025;-76
2021/12/30 07:29:00;;;;;;;112.65;19.75;;;9.10;99.90;;;;;;5036070;28;20067;-76
2021/12/30 07:31:26;;;;;;;99.80;18.65;;;9.10;99.90;;;;;;5054324;28;20082;-76
2021/12/30 07:33:52;;;;;;;104.80;19.00;;;9.10;99.90;;;;;;5036267;28;20045;-77
2021/12/30 07:36:17;;;;;;;109.90;21.02;;;9.10;99.90;;;;;;5053767;28;20422;-77
2021/12/30 07:38:43;;;;;;;98.68;20.05;;;9.20;99.90;;;;;;5054286;28;20025;-76
2021/12/30 07:41:08;;;;;;;100.95;19.67;;;9.20;99.90;;;;;;5036149;28;20090;-76
2021/12/30 07:43:34;;;;;;;115.38;20.25;;;9.20;99.90;;;;;;5037026;28;20057;-77
2021/12/30 07:46:01;;;;;;;123.57;22.85;;;9.20;99.90;;;;;;5035811;28;20028;-76
2021/12/30 07:48:26;;;;;;;92.28;20.63;;;9.20;99.90;;;;;;5035998;28;20107;-77
2021/12/30 07:50:52;;;;;;;110.43;20.88;;;9.30;99.90;;;;;;5053540;28;20104;-76
2021/12/30 07:53:20;;;;;;;134.25;21.52;;;9.30;99.90;;;;;;5055041;28;20028;-76
2021/12/30 07:55:46;;;;;;;113.30;22.42;;;9.30;99.90;;;;;;5056138;28;20029;-75
2021/12/30 07:58:11;;;;;;;114.28;23.15;;;9.30;99.90;;;;;;5057565;28;20025;-77
2021/12/30 08:00:37;;;;;;;109.95;22.92;;;9.30;99.90;;;;;;5053966;28;20028;-75
2021/12/30 08:03:03;;;;;;;111.93;22.27;;;9.40;99.90;;;;;;5052311;28;20032;-78
2021/12/30 08:05:28;;;;;;;116.00;21.92;;;9.40;99.90;;;;;;5058874;28;20035;-77
2021/12/30 08:07:54;;;;;;;120.22;22.73;;;9.40;99.90;;;;;;5059051;28;20029;-78
2021/12/30 08:10:22;;;;;;;111.53;22.80;;;9.40;99.90;;;;;;5075283;28;20037;-80
2021/12/30 08:12:49;;;;;;;112.90;22.90;;;9.50;99.90;;;;;;5058948;28;20531;-77
2021/12/30 08:15:17;;;;;;;111.55;23.20;;;9.50;99.90;;;;;;5057135;28;20047;-73
2021/12/30 08:17:44;;;;;;;127.43;23.63;;;9.50;99.90;;;;;;5040826;28;20028;-77
2021/12/30 08:20:11;;;;;;;110.78;25.40;;;9.50;99.90;;;;;;5037891;28;20075;-76
2021/12/30 08:22:37;;;;;;;128.75;25.20;;;9.50;99.90;;;;;;5056764;28;20032;-78
2021/12/30 08:25:05;;;;;;;117.68;24.98;;;9.60;99.90;;;;;;5054733;28;20078;-77
2021/12/30 08:27:31;;;;;;;119.68;25.27;;;9.60;99.90;;;;;;5053656;28;20071;-77
2021/12/30 08:29:57;;;;;;;114.47;23.05;;;9.60;99.90;;;;;;5035228;28;20485;-75
2021/12/30 08:32:22;;;;;;;120.93;24.13;;;9.70;99.90;;;;;;5052930;28;20029;-74
2021/12/30 08:34:48;;;;;;;115.80;23.30;;;9.90;99.90;;;;;;5054899;28;20025;-75
2021/12/30 08:37:15;;;;;;;103.80;20.67;;;10.00;99.90;;;;;;5058898;28;20033;-79
2021/12/30 08:39:42;;;;;;;102.90;21.05;;;10.10;99.90;;;;;;5059906;28;20051;-76
2021/12/30 08:42:23;;;;;;;110.20;20.90;;;10.10;99.90;;;;;;5066402;28;20029;-76
2021/12/30 08:44:50;;;;;;;97.47;21.90;;;10.00;99.90;;;;;;5071197;28;20052;-75
2021/12/30 08:47:17;;;;;;;107.10;22.80;;;10.00;99.90;;;;;;5060832;28;20029;-77
2021/12/30 08:49:46;;;;;;;121.90;23.50;;;10.00;99.90;;;;;;5064596;28;20029;-75
2021/12/30 08:52:13;;;;;;;93.78;22.20;;;10.10;99.90;;;;;;5066305;28;20021;-79
2021/12/30 08:54:38;;;;;;;109.07;22.77;;;10.00;99.90;;;;;;5068786;28;20115;-76
2021/12/30 08:57:04;;;;;;;94.03;22.38;;;10.00;99.90;;;;;;5048713;28;20029;-75
2021/12/30 08:59:30;;;;;;;110.03;23.70;;;10.00;99.90;;;;;;5061224;28;20056;-77
2021/12/30 09:01:56;;;;;;;98.57;23.42;;;10.00;99.90;;;;;;5055676;28;20029;-78
2021/12/30 09:04:23;;;;;;;111.95;26.02;;;10.00;99.90;;;;;;5037215;28;20389;-76
2021/12/30 09:06:48;;;;;;;135.02;26.88;;;10.10;99.90;;;;;;5052939;28;20075;-76
2021/12/30 09:09:14;;;;;;;118.20;24.85;;;10.10;99.90;;;;;;5052881;28;20347;-76
2021/12/30 09:11:39;;;;;;;97.35;25.38;;;10.00;99.90;;;;;;5056042;28;20029;-76
2021/12/30 09:14:05;;;;;;;122.95;24.35;;;10.00;99.90;;;;;;5057115;28;20057;-76
2021/12/30 09:16:31;;;;;;;119.07;26.77;;;10.00;99.90;;;;;;5057685;28;20036;-76
2021/12/30 09:18:57;;;;;;;127.35;27.95;;;10.00;99.90;;;;;;5038849;28;20036;-76
2021/12/30 09:21:22;;;;;;;130.63;27.25;;;10.00;99.90;;;;;;5057168;28;20025;-77
2021/12/30 09:23:48;;;;;;;122.78;27.27;;;10.10;99.90;;;;;;5058805;28;20036;-78
2021/12/30 09:26:15;;;;;;;110.43;26.70;;;10.10;99.90;;;;;;5061200;28;20096;-75
2021/12/30 09:28:41;;;;;;;118.53;28.85;;;10.10;99.90;;;;;;5062564;28;20493;-76
2021/12/30 09:31:06;;;;;;;110.40;28.85;;;10.10;99.90;;;;;;5058425;28;20029;-77
2021/12/30 09:33:32;;;;;;;118.75;31.08;;;10.10;99.90;;;;;;5060406;28;20028;-76
2021/12/30 09:36:01;;;;;;;135.05;31.33;;;10.10;99.90;;;;;;5039640;28;20025;-75
2021/12/30 09:38:27;;;;;;;131.60;31.50;;;10.20;99.90;;;;;;5059186;28;20062;-76
2021/12/30 09:40:54;;;;;;;129.07;31.70;;;10.20;99.90;;;;;;5061347;28;20036;-75
2021/12/30 09:43:20;;;;;;;112.20;33.13;;;10.20;99.90;;;;;;5057770;28;20516;-77
2021/12/30 09:45:46;;;;;;;115.55;33.67;;;10.20;99.90;;;;;;5057497;28;20041;-76
2021/12/30 09:48:14;;;;;;;137.73;36.17;;;10.20;99.90;;;;;;5057809;28;20099;-77
2021/12/30 09:50:46;;;;;;;121.25;36.30;;;10.10;99.90;;;;;;5057954;28;20070;-75
2021/12/30 09:53:12;;;;;;;113.25;36.45;;;10.10;99.90;;;;;;5057827;28;20078;-75
2021/12/30 09:55:39;;;;;;;115.00;38.53;;;10.10;99.90;;;;;;5057144;28;20229;-75
2021/12/30 09:58:05;;;;;;;115.55;36.45;;;10.10;99.90;;;;;;5046763;28;20021;-76
2021/12/30 10:00:32;;;;;;;111.10;38.45;;;10.20;99.90;;;;;;5068659;28;20076;-76
2021/12/30 10:02:58;;;;;;;118.72;39.30;;;10.20;99.90;;;;;;5070917;28;20013;-77
2021/12/30 10:05:28;;;;;;;129.52;40.40;;;10.20;99.90;;;;;;5067877;28;20052;-77
2021/12/30 10:08:10;;;;;;;116.03;40.45;;;10.30;99.90;;;;;;5064766;28;20059;-76
2021/12/30 10:10:41;;;;;;;124.85;40.38;;;10.30;99.90;;;;;;5057682;28;20059;-78
2021/12/30 10:13:29;;;;;;;114.30;39.83;;;10.20;99.90;;;;;;5045599;28;20017;-75
2021/12/30 10:16:10;;;;;;;123.75;39.25;;;10.30;99.90;;;;;;5040126;28;20032;-75
2021/12/30 10:18:57;;;;;;;124.07;39.63;;;10.30;99.90;;;;;;5039397;28;20025;-76
2021/12/30 10:21:33;;;;;;;119.85;40.50;;;10.40;99.90;;;;;;5056652;28;20031;-75
2021/12/30 10:24:00;;;;;;;112.90;37.65;;;10.40;99.90;;;;;;5056169;28;20025;-75
2021/12/30 10:26:26;;;;;;;98.15;36.22;;;10.40;99.90;;;;;;5055309;28;20060;-76
2021/12/30 10:28:58;;;;;;;105.70;37.13;;;10.40;99.90;;;;;;5055897;28;20064;-76
2021/12/30 10:31:27;;;;;;;89.57;33.65;;;10.40;99.90;;;;;;5055421;28;20029;-77
2021/12/30 10:33:56;;;;;;;93.63;32.90;;;10.50;99.90;;;;;;5055682;28;20017;-75
2021/12/30 10:36:32;;;;;;;82.60;32.13;;;10.50;99.90;;;;;;5055676;28;20078;-77
2021/12/30 10:39:23;;;;;;;92.93;34.90;;;10.50;99.90;;;;;;5055094;28;20025;-76
2021/12/30 10:42:09;;;;;;;96.15;35.15;;;10.60;99.90;;;;;;5031469;28;20041;-76
2021/12/30 10:44:55;;;;;;;97.70;35.83;;;10.60;99.90;;;;;;5055669;28;20036;-75
2021/12/30 10:47:24;;;;;;;68.82;30.50;;;10.70;99.90;;;;;;5055775;28;20084;-77
2021/12/30 10:50:08;;;;;;;66.50;26.05;;;10.60;99.90;;;;;;5039697;28;20025;-77
2021/12/30 10:52:44;;;;;;;77.53;30.60;;;10.70;99.90;;;;;;5065129;28;20032;-76
2021/12/30 10:55:12;;;;;;;65.18;25.50;;;10.70;99.90;;;;;;5058823;28;20331;-77
2021/12/30 10:57:38;;;;;;;50.08;23.17;;;10.70;99.90;;;;;;5058364;28;20013;-77
2021/12/30 11:00:07;;;;;;;54.05;24.73;;;10.80;99.90;;;;;;5056057;28;20021;-77
2021/12/30 11:02:33;;;;;;;46.00;22.73;;;10.80;99.90;;;;;;5057423;28;20024;-76
2021/12/30 11:05:03;;;;;;;33.47;18.85;;;10.70;99.90;;;;;;5057916;28;20021;-77
2021/12/30 11:07:46;;;;;;;39.03;19.55;;;10.90;99.90;;;;;;5041934;28;20158;-77
2021/12/30 11:10:14;;;;;;;36.10;18.77;;;10.80;99.90;;;;;;5059882;28;20025;-76
2021/12/30 11:12:45;;;;;;;38.83;17.73;;;10.80;99.90;;;;;;5042459;28;20025;-76
2021/12/30 11:15:28;;;;;;;31.13;16.10;;;10.80;99.90;;;;;;5053461;28;20505;-76
2021/12/30 11:18:08;;;;;;;32.00;16.25;;;10.90;99.90;;;;;;5050423;28;20029;-75
2021/12/30 11:20:40;;;;;;;27.27;14.82;;;11.00;99.90;;;;;;5058676;28;20039;-79
2021/12/30 11:23:06;;;;;;;26.90;14.60;;;11.00;99.90;;;;;;5064647;28;20033;-77
2021/12/30 11:25:31;;;;;;;27.80;14.13;;;11.00;99.90;;;;;;5058700;28;20012;-77
2021/12/30 11:27:58;;;;;;;22.23;12.80;;;11.00;99.90;;;;;;5060924;28;20536;-77
2021/12/30 11:30:24;;;;;;;21.80;12.27;;;11.10;99.90;;;;;;5049800;28;20025;-77
2021/12/30 11:32:50;;;;;;;21.83;12.50;;;11.10;99.90;;;;;;5047960;28;20025;-75
2021/12/30 11:35:19;;;;;;;21.27;12.43;;;11.20;99.90;;;;;;5050189;28;20025;-76
2021/12/30 11:37:46;;;;;;;22.73;10.48;;;11.20;99.90;;;;;;5053578;28;20025;-75
2021/12/30 11:40:21;;;;;;;23.23;11.40;;;11.30;99.90;;;;;;5035078;28;20021;-77
2021/12/30 11:42:53;;;;;;;21.17;11.25;;;11.30;99.90;;;;;;5046269;28;20033;-76
2021/12/30 11:45:26;;;;;;;20.23;10.85;;;11.30;99.90;;;;;;5042040;28;20078;-76
2021/12/30 11:47:53;;;;;;;17.67;10.32;;;11.50;99.90;;;;;;5034973;28;20553;-76
2021/12/30 11:50:39;;;;;;;18.00;11.25;;;11.50;99.90;;;;;;5048780;28;20050;-76
2021/12/30 11:53:08;;;;;;;18.48;11.32;;;11.60;99.90;;;;;;5054197;28;20021;-75
2021/12/30 11:55:58;;;;;;;18.38;11.50;;;11.60;99.90;;;;;;5061682;28;20017;-77
2021/12/30 11:58:36;;;;;;;17.30;11.00;;;11.70;99.90;;;;;;5061174;28;20379;-77
2021/12/30 12:01:11;;;;;;;17.75;11.23;;;11.70;99.90;;;;;;5048127;28;20459;-76
2021/12/30 12:03:45;;;;;;;14.85;10.13;;;11.70;99.90;;;;;;5035250;28;20029;-76
2021/12/30 12:06:38;;;;;;;18.42;11.52;;;11.70;99.90;;;;;;5045113;28;20025;-77
2021/12/30 12:09:19;;;;;;;16.50;11.25;;;11.80;99.90;;;;;;5027563;28;20036;-79
2021/12/30 12:11:49;;;;;;;16.40;11.02;;;11.80;99.90;;;;;;5056213;28;20052;-77
2021/12/30 12:14:21;;;;;;;16.65;11.05;;;11.80;99.90;;;;;;5053276;28;20100;-75
2021/12/30 12:17:00;;;;;;;19.90;10.88;;;11.80;99.90;;;;;;5055525;28;20021;-78
2021/12/30 12:19:42;;;;;;;14.27;9.75;;;11.80;99.90;;;;;;5037884;28;20031;-76
2021/12/30 12:22:16;;;;;;;14.85;10.02;;;11.90;99.90;;;;;;5036010;28;20021;-78
2021/12/30 12:24:43;;;;;;;13.88;9.20;;;12.00;99.90;;;;;;5045519;28;20124;-77
2021/12/30 12:27:31;;;;;;;15.02;8.75;;;12.00;99.90;;;;;;5033092;28;20056;-77
2021/12/30 12:29:57;;;;;;;13.63;8.48;;;12.00;99.90;;;;;;5024004;28;20037;-77
2021/12/30 12:32:34;;;;;;;10.85;7.15;;;12.10;99.90;;;;;;5042924;28;20104;-76
2021/12/30 12:35:20;;;;;;;10.30;7.75;;;12.10;99.90;;;;;;5051141;28;20017;-75
2021/12/30 12:37:48;;;;;;;11.43;7.28;;;12.10;99.90;;;;;;5028751;28;20038;-75
2021/12/30 12:40:16;;;;;;;9.27;6.13;;;12.10;99.90;;;;;;5051252;28;20030;-78
2021/12/30 12:42:48;;;;;;;7.28;5.68;;;12.20;99.90;;;;;;5055220;28;20055;-76
2021/12/30 12:45:23;;;;;;;8.05;5.85;;;12.20;99.90;;;;;;5038229;28;20056;-75